KLHQKIMS

Guest
Details From KLHQ - FAIRFIELD CO
To KIMS - Madison Muni
Flight Number -
Tags generated
Created
Modified
Stats Distance 144 nm / 266 km
Max Altitude 14,700 ft / 4,481 m
Waypoints 4
Social Downloads 0
Likes 0
Share

Download

Looking for another format? Having issues loading an existing format? Contact us
Advertisement - Login to hide

Notes

Basic altitude profile: - Ascent Rate: 2500ft/min - Ascent Speed: 250kts - Cruise Altitude: 35000ft - Cruise Speed: 420kts - Descent Rate: 1500ft/min - Descent Speed: 250kts Options: - Use NATs: yes - Use PACOTS: yes - Use low airways: yes - Use high airways: yes

Route

KLHQ HEDEN V19 CVG KIMS

ID Type Via Altitude (ft/m) Position (lat/lon) Dist (leg/tot) Name
O KLHQ APT - 0 / 0 39.75564 / -82.65710 - / 0 nm FAIRFIELD CO
HEDEN FIX - 14,700 / 4,481 39.27913 / -84.03399 69 / 69 nm
CVG VOR V19 (AWY-LO) 8,300 / 2,530 39.01597 / -84.70333 34 / 104 nm CINCINNATI VORTAC
O KIMS APT - 0 / 0 38.75984 / -85.46475 38 / 143 nm Madison Muni

Altitude Profile

Advertisement - Login to hide

KLHQ

Details ICAO KLHQ
Name FAIRFIELD CO
Region United States
Timezone America/New_York (UTC-4.0)
Stats Elevation 868 ft / 265 m (AMSL)
Location 39.755600° -82.657100°
Runways 1
Magnetic Variation 7.460° W

METAR

KLHQ 081853Z AUTO VRB03KT 10SM BKN046 11/01 A3011 RMK AO2 SLP200 T01110006

Decode

TAF

Not found

Departure Runways

ID Width Length Bearing (true/mag) Surface Threshold Overrun Markings Lighting
10 75 ft / 23 m 4,993 ft / 1,522 m 94.04° / 101.50° ASPHALT 0 ft / 0 m 0 ft / 0 m APP EDGE THRESHOLD REIL-OMNI
28 75 ft / 23 m 4,993 ft / 1,522 m 274.05° / 281.51° ASPHALT 279 ft / 85 m 0 ft / 0 m APP EDGE THRESHOLD REIL-OMNI

KIMS

Details ICAO KIMS
Name Madison Municipal Airport
Region United States
Timezone America/Indiana/Indianapolis (UTC-4.0)
Stats Elevation 818 ft / 249 m (AMSL)
Location 38.759900° -85.464700°
Runways 1
Magnetic Variation 5.316° W

METAR

KIMS 081935Z AUTO 00000KT 10SM CLR 14/00 A3012 RMK AO2

Decode

TAF

Not found

Destination Runways

ID Width Length Bearing (true/mag) Surface Threshold Overrun Markings Lighting
03 75 ft / 23 m 5,015 ft / 1,529 m 31.61° / 36.93° ASPHALT 0 ft / 0 m 0 ft / 0 m APP EDGE THRESHOLD MALSF
21 75 ft / 23 m 5,015 ft / 1,529 m 211.62° / 216.94° ASPHALT 0 ft / 0 m 0 ft / 0 m APP EDGE THRESHOLD REIL-OMNI